Time;durP1;ratioP1;P1;durP2;ratioP2;P2;SDS_P1;SDS_P2;PMS_P1;PMS_P2;Temp;Humidity;BMP_temperature;BMP_pressure;BME280_temperature;BME280_humidity;BME280_pressure;Samples;Min_cycle;Max_cycle;Signal;HPM_P1;HPM_P2
2021/03/20 00:01:15;;;;;;;59.10;25.20;;;0.80;99.90;;;;;;5016438;28;20187;-90
2021/03/20 00:03:41;;;;;;;46.67;23.10;;;0.00;99.90;;;;;;5016646;28;20239;-92
2021/03/20 00:06:07;;;;;;;52.77;25.33;;;1.30;99.90;;;;;;5014865;28;20548;-92
2021/03/20 00:08:34;;;;;;;52.30;26.00;;;1.20;99.90;;;;;;5016582;28;20186;-92
2021/03/20 00:11:00;;;;;;;47.57;22.67;;;-0.60;99.90;;;;;;4999007;28;20196;-92
2021/03/20 00:13:26;;;;;;;49.13;24.50;;;1.40;99.90;;;;;;4982492;28;20205;-91
2021/03/20 00:15:56;;;;;;;47.60;24.37;;;0.80;99.90;;;;;;5016026;28;20297;-91
2021/03/20 00:18:24;;;;;;;53.73;26.30;;;-0.40;99.90;;;;;;4999116;28;20274;-91
2021/03/20 00:20:49;;;;;;;47.10;23.77;;;0.80;99.90;;;;;;4998659;28;20178;-90
2021/03/20 00:23:15;;;;;;;54.77;28.60;;;0.40;99.90;;;;;;5014590;28;20291;-91
2021/03/20 00:25:41;;;;;;;46.93;24.37;;;-0.50;99.90;;;;;;5014860;28;20199;-91
2021/03/20 00:28:10;;;;;;;57.27;25.63;;;1.10;99.90;;;;;;5016134;28;20192;-89
2021/03/20 00:30:37;;;;;;;52.20;28.87;;;-0.30;99.90;;;;;;5016419;28;20177;-91
2021/03/20 00:33:03;;;;;;;54.93;30.57;;;0.30;99.90;;;;;;5016166;28;20178;-90
2021/03/20 00:35:29;;;;;;;60.10;28.67;;;1.30;99.90;;;;;;5014235;28;20244;-90
2021/03/20 00:37:55;;;;;;;58.63;28.47;;;0.60;99.90;;;;;;4998257;28;20240;-90
2021/03/20 00:40:28;;;;;;;61.50;28.63;;;-0.50;99.90;;;;;;5014473;28;20236;-91
2021/03/20 00:42:54;;;;;;;52.20;26.20;;;-0.50;99.90;;;;;;5015709;28;20635;-90
2021/03/20 00:45:22;;;;;;;56.47;27.97;;;0.30;99.90;;;;;;5014351;28;20185;-90
2021/03/20 00:47:48;;;;;;;62.40;31.37;;;-0.50;99.90;;;;;;5015636;28;20173;-90
2021/03/20 00:50:16;;;;;;;59.40;28.13;;;0.60;99.90;;;;;;5015469;28;20171;-91
2021/03/20 00:52:42;;;;;;;59.10;27.57;;;-0.20;99.90;;;;;;5014726;28;20178;-91
2021/03/20 00:55:12;;;;;;;57.60;28.47;;;0.70;99.90;;;;;;5014528;28;20213;-90
2021/03/20 00:57:38;;;;;;;61.03;28.33;;;-0.50;99.90;;;;;;5014817;28;20649;-90
2021/03/20 01:00:08;;;;;;;52.27;26.50;;;1.10;99.90;;;;;;5014388;28;20519;-91
2021/03/20 01:02:34;;;;;;;56.43;27.50;;;-0.40;99.90;;;;;;5015061;28;20235;-91
2021/03/20 01:04:59;;;;;;;50.40;25.37;;;-0.40;99.90;;;;;;4981426;28;20707;-90
2021/03/20 01:07:25;;;;;;;53.77;26.60;;;-0.40;99.90;;;;;;5015030;28;20670;-91
2021/03/20 01:09:51;;;;;;;60.13;31.23;;;-0.40;99.90;;;;;;5014602;28;20211;-91
2021/03/20 01:12:16;;;;;;;57.03;27.60;;;-0.50;99.90;;;;;;4997778;28;20192;-91
2021/03/20 01:14:42;;;;;;;59.57;27.57;;;-0.50;99.90;;;;;;4997882;28;20199;-91
2021/03/20 01:17:07;;;;;;;54.87;27.37;;;0.40;99.90;;;;;;4997908;28;20183;-91
2021/03/20 01:19:33;;;;;;;49.30;23.63;;;-0.40;99.90;;;;;;4997412;28;20201;-92
2021/03/20 01:21:59;;;;;;;52.93;24.70;;;1.00;99.90;;;;;;5015375;28;20668;-91
2021/03/20 01:24:24;;;;;;;53.27;26.30;;;1.20;99.90;;;;;;5013623;28;20185;-91
2021/03/20 01:26:50;;;;;;;52.17;25.67;;;-0.50;99.90;;;;;;5014086;28;20213;-92
2021/03/20 01:29:15;;;;;;;51.17;23.60;;;-0.50;99.90;;;;;;5014882;28;20182;-91
2021/03/20 01:31:41;;;;;;;50.77;24.63;;;-0.50;99.90;;;;;;5015461;28;20244;-91
2021/03/20 01:34:07;;;;;;;52.77;24.70;;;1.20;99.90;;;;;;5014860;28;20191;-92
2021/03/20 01:36:33;;;;;;;53.20;24.17;;;1.00;99.90;;;;;;4997121;28;20229;-92
2021/03/20 01:38:59;;;;;;;50.57;26.40;;;1.10;99.90;;;;;;5013654;28;20270;-92
2021/03/20 01:41:26;;;;;;;54.63;27.23;;;-0.40;99.90;;;;;;5014730;28;20268;-92
2021/03/20 01:43:53;;;;;;;53.93;27.47;;;-0.50;99.90;;;;;;4998089;28;20190;-93
2021/03/20 01:46:41;;;;;;;50.80;24.77;;;1.00;99.90;;;;;;5013351;28;20189;-92
2021/03/20 01:49:25;;;;;;;52.63;26.07;;;-0.50;99.90;;;;;;5014094;28;20275;-92
2021/03/20 01:52:19;;;;;;;57.93;26.20;;;0.90;99.90;;;;;;5013966;28;20186;-92
2021/03/20 01:55:07;;;;;;;55.23;27.20;;;1.10;99.90;;;;;;5014916;28;20168;-92
2021/03/20 01:57:39;;;;;;;60.73;30.87;;;-0.50;99.90;;;;;;5013103;28;20187;-92
2021/03/20 02:00:08;;;;;;;51.30;22.93;;;-0.50;99.90;;;;;;5014742;28;20170;-93
2021/03/20 02:02:35;;;;;;;57.47;26.43;;;-0.50;99.90;;;;;;5012857;28;20192;-92
2021/03/20 02:05:01;;;;;;;57.30;24.20;;;1.40;99.90;;;;;;5014870;28;20258;-93
2021/03/20 02:07:26;;;;;;;57.60;24.97;;;1.80;99.90;;;;;;5012519;28;20187;-93
2021/03/20 02:09:52;;;;;;;55.30;24.53;;;-0.60;99.90;;;;;;5013179;28;20288;-92
2021/03/20 02:12:22;;;;;;;63.63;27.27;;;0.90;99.90;;;;;;5014563;28;20267;-92
2021/03/20 02:15:00;;;;;;;56.23;26.17;;;-0.60;99.90;;;;;;5014457;28;20279;-92
2021/03/20 02:17:49;;;;;;;63.20;27.30;;;1.00;99.90;;;;;;5013007;28;20166;-92
2021/03/20 02:20:26;;;;;;;56.63;25.87;;;-0.70;99.90;;;;;;5014389;28;20197;-92
2021/03/20 02:23:04;;;;;;;55.87;25.70;;;-0.60;99.90;;;;;;5013311;28;20188;-92
2021/03/20 02:25:48;;;;;;;56.73;25.40;;;-0.60;99.90;;;;;;5014144;28;20169;-94
2021/03/20 02:29:03;;;;;;;52.67;23.30;;;-0.70;99.90;;;;;;5013063;28;20183;-91
2021/03/20 02:32:01;;;;;;;48.87;25.30;;;-0.70;99.90;;;;;;5012596;28;20204;-92
2021/03/20 02:35:03;;;;;;;55.53;27.57;;;-0.60;99.90;;;;;;5013546;28;20209;-91
2021/03/20 02:37:49;;;;;;;54.33;24.53;;;-0.70;99.90;;;;;;5012525;28;20237;-92
2021/03/20 02:40:56;;;;;;;57.73;24.63;;;0.00;99.90;;;;;;5013984;28;20169;-91
2021/03/20 02:43:33;;;;;;;53.87;24.63;;;-0.80;99.90;;;;;;5013029;28;20192;-91
2021/03/20 02:46:08;;;;;;;57.73;26.97;;;-0.80;99.90;;;;;;5013942;28;20248;-91
2021/03/20 02:48:53;;;;;;;56.90;25.47;;;1.40;99.90;;;;;;5011740;28;20299;-91
2021/03/20 02:51:38;;;;;;;56.13;24.63;;;-0.80;99.90;;;;;;5012598;28;20172;-91
2021/03/20 02:54:17;;;;;;;49.43;24.03;;;0.80;99.90;;;;;;5014198;28;20614;-93
2021/03/20 02:57:21;;;;;;;49.13;22.63;;;0.20;99.90;;;;;;5013600;28;20204;-92
2021/03/20 02:59:56;;;;;;;48.33;22.10;;;-0.90;99.90;;;;;;5013520;28;20190;-91
2021/03/20 03:02:24;;;;;;;47.70;21.43;;;-1.00;99.90;;;;;;5012768;28;20263;-93
2021/03/20 03:04:58;;;;;;;41.03;18.03;;;-0.90;99.90;;;;;;5012060;28;20229;-93
2021/03/20 03:07:39;;;;;;;52.30;24.40;;;0.60;99.90;;;;;;5013875;28;20177;-92
2021/03/20 03:10:18;;;;;;;46.97;21.63;;;0.30;99.90;;;;;;5013801;28;20169;-91
2021/03/20 03:12:48;;;;;;;45.03;20.80;;;-1.00;99.90;;;;;;5012062;28;20184;-92
2021/03/20 03:15:18;;;;;;;52.40;25.13;;;-0.40;99.90;;;;;;5013944;28;20208;-92
2021/03/20 03:17:51;;;;;;;49.07;22.23;;;-1.00;99.90;;;;;;5011845;28;20689;-92
2021/03/20 03:20:30;;;;;;;49.83;24.63;;;-1.00;99.90;;;;;;5017969;28;20179;-94
2021/03/20 03:23:07;;;;;;;42.17;21.67;;;-1.00;99.90;;;;;;5020565;28;20179;-93
2021/03/20 03:25:37;;;;;;;50.10;23.90;;;-1.00;99.90;;;;;;5019058;28;20520;-93
2021/03/20 03:28:07;;;;;;;50.87;24.87;;;-1.10;99.90;;;;;;5020558;28;20174;-93
2021/03/20 03:30:34;;;;;;;56.23;23.30;;;0.60;99.90;;;;;;5018770;28;20681;-92
2021/03/20 03:33:11;;;;;;;47.87;23.27;;;0.40;99.90;;;;;;5020291;28;20235;-93
2021/03/20 03:35:44;;;;;;;51.87;23.60;;;-1.20;99.90;;;;;;5019869;28;20210;-93
2021/03/20 03:38:20;;;;;;;58.30;27.83;;;-1.30;99.90;;;;;;5019976;28;20612;-93
2021/03/20 03:40:52;;;;;;;54.87;26.63;;;-1.30;99.90;;;;;;5019588;28;20176;-92
2021/03/20 03:43:19;;;;;;;55.40;27.73;;;-1.30;99.90;;;;;;5020130;28;20298;-93
2021/03/20 03:45:46;;;;;;;48.67;23.43;;;-1.40;99.90;;;;;;5019963;28;20184;-92
2021/03/20 03:48:13;;;;;;;52.90;24.30;;;-1.40;99.90;;;;;;5020603;28;20184;-92
2021/03/20 03:50:41;;;;;;;52.37;24.50;;;-1.40;99.90;;;;;;5021276;28;20200;-94
2021/03/20 03:53:08;;;;;;;54.67;23.10;;;-0.20;99.90;;;;;;5021971;28;20181;-92
2021/03/20 03:55:34;;;;;;;51.77;25.17;;;0.10;99.90;;;;;;5033604;28;20209;-87
2021/03/20 03:58:34;;;;;;;54.47;23.97;;;-1.30;99.90;;;;;;5033826;28;20185;-88
2021/03/20 04:01:30;;;;;;;51.87;26.17;;;-1.30;99.90;;;;;;5026468;28;20203;-87
2021/03/20 04:04:02;;;;;;;50.50;24.97;;;-1.30;99.90;;;;;;5026398;28;20234;-86
2021/03/20 04:06:36;;;;;;;41.43;18.83;;;0.40;99.90;;;;;;5019691;28;20181;-90
2021/03/20 04:09:05;;;;;;;46.57;21.87;;;0.30;99.90;;;;;;5020715;28;20180;-93
2021/03/20 04:11:33;;;;;;;45.87;20.97;;;-1.30;99.90;;;;;;5022105;28;20236;-87
2021/03/20 04:13:58;;;;;;;43.40;22.97;;;-1.30;99.90;;;;;;5022849;28;20173;-87
2021/03/20 04:16:34;;;;;;;48.23;24.33;;;0.10;99.90;;;;;;5036139;28;20216;-87
2021/03/20 04:19:03;;;;;;;43.43;22.23;;;-0.60;99.90;;;;;;5038928;28;20171;-88
2021/03/20 04:21:28;;;;;;;44.37;23.27;;;-1.30;99.90;;;;;;5019035;28;20216;-92
2021/03/20 04:24:09;;;;;;;40.23;21.63;;;-1.20;99.90;;;;;;5019280;28;20269;-92
2021/03/20 04:26:41;;;;;;;41.70;22.60;;;-1.30;99.90;;;;;;5019707;28;20199;-93
2021/03/20 04:29:15;;;;;;;37.13;22.20;;;-1.30;99.90;;;;;;5018572;28;20191;-93
2021/03/20 04:32:00;;;;;;;32.10;17.50;;;-0.70;99.90;;;;;;5016156;28;20223;-91
2021/03/20 04:34:36;;;;;;;37.27;19.33;;;-0.40;99.90;;;;;;5016479;28;20178;-91
2021/03/20 04:37:12;;;;;;;35.53;18.40;;;-1.40;99.90;;;;;;5014748;28;20190;-91
2021/03/20 04:39:42;;;;;;;41.20;19.67;;;0.10;99.90;;;;;;5016228;28;20163;-91
2021/03/20 04:42:09;;;;;;;37.53;19.93;;;-1.10;99.90;;;;;;5014866;28;20681;-91
2021/03/20 04:44:36;;;;;;;35.63;18.00;;;-1.40;99.90;;;;;;5014816;28;20190;-91
2021/03/20 04:47:11;;;;;;;38.90;18.97;;;-1.10;99.90;;;;;;5015673;28;20645;-92
2021/03/20 04:49:49;;;;;;;35.70;19.07;;;0.30;99.90;;;;;;5014837;28;20172;-90
2021/03/20 04:52:26;;;;;;;38.20;19.57;;;-1.40;99.90;;;;;;5016063;28;20250;-90
2021/03/20 04:54:52;;;;;;;32.73;17.37;;;-1.50;99.90;;;;;;5014730;28;20255;-91
2021/03/20 04:57:27;;;;;;;30.87;15.50;;;-1.40;99.90;;;;;;5016151;28;20264;-91
2021/03/20 04:59:52;;;;;;;35.37;17.70;;;-0.40;99.90;;;;;;5014319;28;20185;-92
2021/03/20 05:02:31;;;;;;;30.20;17.00;;;-1.20;99.90;;;;;;5015480;28;20187;-93
2021/03/20 05:05:04;;;;;;;35.23;18.07;;;-1.30;99.90;;;;;;5014143;28;20574;-93
2021/03/20 05:07:31;;;;;;;29.50;16.50;;;-0.10;99.90;;;;;;5014542;28;20301;-91
2021/03/20 05:09:59;;;;;;;26.67;15.77;;;0.10;99.90;;;;;;5014039;28;20638;-90
2021/03/20 05:12:28;;;;;;;30.50;16.43;;;-1.30;99.90;;;;;;5015484;28;20173;-90
2021/03/20 05:15:02;;;;;;;29.80;17.57;;;-0.50;99.90;;;;;;5014016;28;20196;-89
2021/03/20 05:17:28;;;;;;;24.93;13.10;;;-1.40;99.90;;;;;;5014255;28;20634;-90
2021/03/20 05:19:54;;;;;;;27.03;14.53;;;-1.30;99.90;;;;;;5013903;28;20259;-89
2021/03/20 05:22:29;;;;;;;37.67;19.37;;;0.50;99.90;;;;;;4997786;28;20177;-90
2021/03/20 05:24:56;;;;;;;27.60;14.37;;;-1.30;99.90;;;;;;5014985;28;20262;-90
2021/03/20 05:27:25;;;;;;;31.73;15.93;;;-1.30;99.90;;;;;;5014829;28;20183;-90
2021/03/20 05:29:51;;;;;;;35.93;19.47;;;-1.40;99.90;;;;;;5013273;28;20188;-90
2021/03/20 05:32:22;;;;;;;31.37;18.50;;;-1.40;99.90;;;;;;5015595;28;20182;-88
2021/03/20 05:34:49;;;;;;;36.87;16.53;;;-0.30;99.90;;;;;;5014648;28;20163;-89
2021/03/20 05:37:22;;;;;;;28.73;16.83;;;-1.50;99.90;;;;;;5017011;28;20253;-90
2021/03/20 05:39:49;;;;;;;29.97;15.97;;;0.20;99.90;;;;;;5028891;28;20200;-88
2021/03/20 05:42:38;;;;;;;33.87;16.13;;;-1.50;99.90;;;;;;5030553;28;20195;-90
2021/03/20 05:45:16;;;;;;;24.93;14.97;;;-1.50;99.90;;;;;;5031006;28;20182;-90
2021/03/20 05:47:48;;;;;;;32.37;16.63;;;-0.80;99.90;;;;;;5031127;28;20186;-91
2021/03/20 05:50:35;;;;;;;26.93;15.37;;;-1.20;99.90;;;;;;5031969;28;20300;-92
2021/03/20 05:53:22;;;;;;;32.73;18.10;;;-1.40;99.90;;;;;;5031045;28;20213;-90
2021/03/20 05:56:01;;;;;;;27.33;14.23;;;-1.40;99.90;;;;;;5033004;28;20685;-89
2021/03/20 05:59:01;;;;;;;25.27;13.43;;;-0.40;99.90;;;;;;5026825;28;20194;-88
2021/03/20 06:02:17;;;;;;;28.23;14.07;;;-1.40;99.90;;;;;;5030477;28;20546;-91
2021/03/20 06:04:54;;;;;;;28.53;14.57;;;-1.40;99.90;;;;;;4994414;28;20429;-88
2021/03/20 06:07:22;;;;;;;31.57;16.60;;;0.00;99.90;;;;;;5029541;28;20269;-89
2021/03/20 06:10:10;;;;;;;30.57;16.13;;;-1.40;99.90;;;;;;5025630;28;20327;-88
2021/03/20 06:12:54;;;;;;;26.53;15.33;;;-1.40;99.90;;;;;;5031627;28;20198;-88
2021/03/20 06:15:41;;;;;;;25.90;13.70;;;-1.40;99.90;;;;;;5028211;28;20233;-89
2021/03/20 06:18:16;;;;;;;23.13;13.50;;;-1.40;99.90;;;;;;5038917;28;20240;-87
2021/03/20 06:20:59;;;;;;;22.50;12.40;;;-1.30;99.90;;;;;;5030729;28;20237;-92
2021/03/20 06:24:06;;;;;;;26.37;14.70;;;-1.30;99.90;;;;;;5026811;28;20203;-90
2021/03/20 06:26:35;;;;;;;23.53;13.73;;;-1.30;99.90;;;;;;5023820;28;20205;-93
2021/03/20 06:29:07;;;;;;;21.97;12.67;;;-1.30;99.90;;;;;;5029352;28;20192;-93
2021/03/20 06:31:40;;;;;;;26.63;14.33;;;-1.30;99.90;;;;;;5030231;28;20176;-90
2021/03/20 06:34:33;;;;;;;30.73;13.43;;;-1.40;99.90;;;;;;5031607;28;20242;-91
2021/03/20 06:37:04;;;;;;;30.30;18.27;;;-1.40;99.90;;;;;;5029283;28;20335;-87
2021/03/20 06:39:33;;;;;;;29.73;17.73;;;-1.50;99.90;;;;;;5030719;28;20189;-88
2021/03/20 06:42:08;;;;;;;30.37;16.80;;;-0.30;99.90;;;;;;5029488;28;20582;-87
2021/03/20 06:44:39;;;;;;;31.07;16.73;;;-1.50;99.90;;;;;;5029505;28;20212;-90
2021/03/20 06:47:23;;;;;;;34.83;16.93;;;-1.60;99.90;;;;;;5027651;28;20270;-93
2021/03/20 06:50:02;;;;;;;36.67;17.30;;;-1.50;99.90;;;;;;5028444;28;20181;-89
2021/03/20 06:52:32;;;;;;;27.47;15.20;;;-1.50;99.90;;;;;;5028498;28;20211;-87
2021/03/20 06:55:02;;;;;;;29.90;18.23;;;-1.50;99.90;;;;;;5026748;28;20212;-87
2021/03/20 06:57:28;;;;;;;28.50;14.67;;;-1.40;99.90;;;;;;5029222;28;20184;-87
2021/03/20 06:59:54;;;;;;;31.33;16.10;;;-0.90;99.90;;;;;;5012366;28;20268;-85
2021/03/20 07:02:27;;;;;;;29.67;15.70;;;0.40;99.90;;;;;;5029152;28;20657;-87
2021/03/20 07:05:03;;;;;;;28.73;15.73;;;-1.60;99.90;;;;;;5029581;28;20235;-86
2021/03/20 07:07:56;;;;;;;30.83;17.20;;;-0.70;99.90;;;;;;5027940;28;20274;-85
2021/03/20 07:10:46;;;;;;;28.87;15.30;;;-1.70;99.90;;;;;;5029465;28;20187;-85
2021/03/20 07:13:22;;;;;;;30.53;16.90;;;-1.70;99.90;;;;;;5030351;28;20181;-89
2021/03/20 07:16:06;;;;;;;25.30;15.37;;;-1.70;99.90;;;;;;5030077;28;20215;-89
2021/03/20 07:18:35;;;;;;;21.77;13.53;;;-2.40;99.90;;;;;;5030194;28;20285;-88
2021/03/20 07:21:03;;;;;;;30.33;15.60;;;-1.80;99.90;;;;;;5029108;28;20202;-87
2021/03/20 07:23:29;;;;;;;30.93;16.20;;;-1.20;99.90;;;;;;5023101;28;20215;-86
2021/03/20 07:26:09;;;;;;;28.70;16.00;;;-0.60;99.90;;;;;;5024057;28;20346;-87
2021/03/20 07:28:36;;;;;;;31.07;15.23;;;0.50;99.90;;;;;;5017831;28;20181;-87
2021/03/20 07:31:10;;;;;;;32.60;15.77;;;-0.40;99.90;;;;;;5017694;28;20191;-87
2021/03/20 07:33:42;;;;;;;25.57;14.20;;;-0.30;99.90;;;;;;5022503;28;20185;-88
2021/03/20 07:36:37;;;;;;;28.60;16.30;;;-1.70;99.90;;;;;;5021933;28;20197;-87
2021/03/20 07:39:26;;;;;;;28.00;13.70;;;-1.60;99.90;;;;;;5021215;28;20181;-87
2021/03/20 07:42:03;;;;;;;29.37;15.03;;;-1.70;99.90;;;;;;5020224;28;20201;-86
2021/03/20 07:44:49;;;;;;;26.30;14.20;;;-1.70;99.90;;;;;;5025796;28;20267;-86
2021/03/20 07:47:18;;;;;;;30.27;14.70;;;-1.60;99.90;;;;;;5019731;28;20220;-87
2021/03/20 07:49:44;;;;;;;28.80;16.27;;;-1.10;99.90;;;;;;5019128;28;20271;-87
2021/03/20 07:52:26;;;;;;;30.83;16.13;;;-1.70;99.90;;;;;;5024187;28;20185;-86
2021/03/20 07:55:06;;;;;;;29.37;14.37;;;-1.70;99.90;;;;;;5019993;28;20538;-87
2021/03/20 07:57:33;;;;;;;34.07;17.07;;;-1.60;99.90;;;;;;5045472;28;20176;-87
2021/03/20 07:59:59;;;;;;;35.13;17.17;;;-0.80;99.90;;;;;;5003827;28;20236;-86
2021/03/20 08:02:34;;;;;;;27.50;16.00;;;-1.10;99.90;;;;;;5029287;28;20190;-86
2021/03/20 08:05:20;;;;;;;32.53;16.50;;;0.20;99.90;;;;;;5022046;28;20229;-87
2021/03/20 08:07:51;;;;;;;27.27;14.93;;;-1.50;99.90;;;;;;5029206;28;20188;-85
2021/03/20 08:10:26;;;;;;;30.97;14.20;;;-1.40;99.90;;;;;;5031321;28;20184;-86
2021/03/20 08:13:05;;;;;;;30.07;14.53;;;-1.40;99.90;;;;;;5019992;28;20200;-86
2021/03/20 08:15:41;;;;;;;31.20;14.30;;;-1.30;99.90;;;;;;5031276;28;20223;-86
2021/03/20 08:18:18;;;;;;;26.97;13.97;;;-1.30;99.90;;;;;;5026277;28;20183;-85
2021/03/20 08:20:55;;;;;;;27.60;13.40;;;-1.30;99.90;;;;;;5025626;28;20191;-86
2021/03/20 08:23:50;;;;;;;24.67;13.80;;;-1.20;99.90;;;;;;5030916;28;20184;-87
2021/03/20 08:26:21;;;;;;;23.93;11.20;;;-1.20;99.90;;;;;;5013843;28;20231;-88
2021/03/20 08:28:55;;;;;;;24.83;13.13;;;-1.10;99.90;;;;;;5027398;28;20188;-86
2021/03/20 08:31:35;;;;;;;25.87;12.33;;;-1.00;99.90;;;;;;5024793;28;20228;-87
2021/03/20 08:34:22;;;;;;;26.17;12.93;;;-1.20;99.90;;;;;;5025952;28;20208;-88
2021/03/20 08:37:23;;;;;;;24.57;11.50;;;-1.10;99.90;;;;;;5025911;28;20204;-85
2021/03/20 08:40:19;;;;;;;25.73;12.37;;;-1.00;99.90;;;;;;5017673;28;20197;-86
2021/03/20 08:43:15;;;;;;;25.80;13.90;;;-1.00;99.90;;;;;;5025966;28;20255;-92
2021/03/20 08:46:06;;;;;;;31.00;14.67;;;-1.00;99.90;;;;;;5027857;28;20173;-88
2021/03/20 08:49:11;;;;;;;28.07;13.10;;;-1.00;99.90;;;;;;5026577;28;20185;-87
2021/03/20 08:52:31;;;;;;;33.90;15.37;;;-1.00;99.90;;;;;;5015757;28;20156;-88
2021/03/20 08:55:20;;;;;;;35.17;14.43;;;-0.90;99.90;;;;;;4955518;28;20185;-86
2021/03/20 08:57:59;;;;;;;26.83;13.80;;;-0.80;99.90;;;;;;4954930;28;20634;-87
2021/03/20 09:00:31;;;;;;;26.87;13.83;;;-0.90;99.90;;;;;;5000910;28;20188;-90
2021/03/20 09:03:01;;;;;;;29.33;15.27;;;0.10;99.90;;;;;;5013458;28;20169;-88
2021/03/20 09:05:34;;;;;;;34.47;18.47;;;0.40;99.90;;;;;;5013200;28;20180;-86
2021/03/20 09:08:17;;;;;;;34.33;17.63;;;-0.90;99.90;;;;;;5014291;28;20172;-87
2021/03/20 09:11:03;;;;;;;29.73;14.13;;;-0.90;99.90;;;;;;5014945;28;20254;-87
2021/03/20 09:13:38;;;;;;;26.77;12.77;;;-0.80;99.90;;;;;;5020891;28;20173;-85
2021/03/20 09:16:14;;;;;;;27.93;15.77;;;-0.80;99.90;;;;;;5015408;28;20230;-88
2021/03/20 09:18:41;;;;;;;32.13;15.40;;;0.70;99.90;;;;;;5013204;28;20178;-89
2021/03/20 09:21:09;;;;;;;25.57;12.80;;;0.60;99.90;;;;;;5013927;28;20246;-88
2021/03/20 09:23:45;;;;;;;28.13;13.83;;;-0.40;99.90;;;;;;5014871;28;20185;-87
2021/03/20 09:26:32;;;;;;;26.50;13.73;;;-0.70;99.90;;;;;;5013821;28;20698;-88
2021/03/20 09:29:03;;;;;;;23.17;12.77;;;-0.40;99.90;;;;;;5014881;28;20256;-88
2021/03/20 09:31:29;;;;;;;27.00;12.43;;;0.30;99.90;;;;;;5013276;28;20628;-87
2021/03/20 09:33:57;;;;;;;24.43;12.03;;;-0.60;99.90;;;;;;5013758;28;20199;-87
2021/03/20 09:36:22;;;;;;;21.87;11.50;;;0.70;99.90;;;;;;5014643;28;20246;-87
2021/03/20 09:38:49;;;;;;;26.47;14.03;;;-0.60;99.90;;;;;;5013581;28;20595;-87
2021/03/20 09:41:15;;;;;;;26.27;14.13;;;-0.50;99.90;;;;;;5014728;28;20220;-88
2021/03/20 09:43:44;;;;;;;26.00;13.33;;;-0.50;99.90;;;;;;5022130;28;20219;-88
2021/03/20 09:46:38;;;;;;;22.53;12.73;;;-0.40;99.90;;;;;;5034286;28;20192;-87
2021/03/20 09:49:24;;;;;;;28.20;12.57;;;-0.40;99.90;;;;;;5032198;28;20240;-88
2021/03/20 09:51:53;;;;;;;29.57;13.87;;;-0.30;99.90;;;;;;5029700;28;20687;-88
2021/03/20 09:56:56;;;;;;;30.17;16.27;;;1.00;99.90;;;;;;5033891;28;20216;-89
2021/03/20 09:59:28;;;;;;;31.90;16.03;;;0.10;99.90;;;;;;5031796;28;20192;-86
2021/03/20 10:01:59;;;;;;;29.57;14.60;;;1.30;99.90;;;;;;5030204;28;20248;-86
2021/03/20 10:04:27;;;;;;;33.27;15.00;;;0.50;99.90;;;;;;5033008;28;20229;-83
2021/03/20 10:07:31;;;;;;;32.50;13.70;;;1.40;99.90;;;;;;5032099;28;20228;-89
2021/03/20 10:09:56;;;;;;;28.43;13.77;;;-0.60;99.90;;;;;;4951233;28;20203;-88
2021/03/20 10:12:30;;;;;;;28.63;12.60;;;-0.40;99.90;;;;;;4994994;28;20192;-88
2021/03/20 10:18:02;;;;;;;28.43;11.93;;;-0.40;99.90;;;;;;5011154;28;20190;-86
2021/03/20 10:20:48;;;;;;;30.73;13.43;;;-0.50;99.90;;;;;;5011445;28;20173;-85
2021/03/20 10:23:38;;;;;;;42.13;21.10;;;-0.40;99.90;;;;;;5011707;28;20258;-88
2021/03/20 10:26:14;;;;;;;31.77;15.10;;;-0.40;99.90;;;;;;5011528;28;20193;-87
2021/03/20 10:28:47;;;;;;;22.83;13.53;;;-0.50;99.90;;;;;;5012547;28;20222;-86
2021/03/20 10:31:14;;;;;;;25.37;14.40;;;1.30;99.90;;;;;;5013301;28;20257;-86
2021/03/20 10:33:43;;;;;;;24.97;13.23;;;-0.30;99.90;;;;;;5012873;28;20255;-86
2021/03/20 10:36:15;;;;;;;22.20;12.53;;;-0.20;99.90;;;;;;5013152;28;20568;-85
2021/03/20 10:38:42;;;;;;;27.13;13.10;;;-0.10;99.90;;;;;;5012997;28;20672;-84
2021/03/20 10:41:30;;;;;;;25.47;13.90;;;-0.10;99.90;;;;;;5021321;28;20235;-85
2021/03/20 10:44:16;;;;;;;36.37;19.00;;;0.00;99.90;;;;;;5032884;28;20172;-85
2021/03/20 10:46:44;;;;;;;25.53;13.80;;;-0.10;99.90;;;;;;5032594;28;20249;-87
2021/03/20 10:49:22;;;;;;;25.63;13.07;;;0.00;99.90;;;;;;5033517;28;20209;-88
2021/03/20 10:51:53;;;;;;;28.53;13.20;;;0.00;99.90;;;;;;5032544;28;20267;-86
2021/03/20 10:54:33;;;;;;;26.80;14.30;;;0.80;99.90;;;;;;5032725;28;20178;-86
2021/03/20 10:57:16;;;;;;;25.73;14.47;;;-0.60;99.90;;;;;;5032666;28;20196;-86
2021/03/20 10:59:45;;;;;;;26.47;14.10;;;-0.70;99.90;;;;;;5032442;28;20165;-87
2021/03/20 11:02:32;;;;;;;29.63;14.33;;;0.20;99.90;;;;;;5032472;28;20200;-87
2021/03/20 11:05:19;;;;;;;25.47;14.63;;;-0.80;99.90;;;;;;5031868;28;20226;-85
2021/03/20 11:08:02;;;;;;;23.00;12.53;;;-0.80;99.90;;;;;;5034964;28;20179;-85
2021/03/20 11:10:31;;;;;;;25.30;13.90;;;-0.80;99.90;;;;;;5032883;28;20159;-88
2021/03/20 11:13:21;;;;;;;33.07;17.90;;;-0.70;99.90;;;;;;5032505;28;20220;-87
2021/03/20 11:15:49;;;;;;;27.43;15.17;;;-0.80;99.90;;;;;;5031771;28;20221;-86
2021/03/20 11:18:23;;;;;;;29.33;14.33;;;-0.70;99.90;;;;;;5032051;28;20177;-87
2021/03/20 11:20:49;;;;;;;27.50;15.17;;;-0.80;99.90;;;;;;5030708;28;20186;-88
2021/03/20 11:23:34;;;;;;;33.60;18.23;;;-0.80;99.90;;;;;;5014552;28;20178;-87
2021/03/20 11:26:24;;;;;;;23.57;13.57;;;1.40;99.90;;;;;;5014573;28;20185;-88
2021/03/20 11:28:51;;;;;;;28.17;14.17;;;-0.70;99.90;;;;;;5015623;28;20187;-89
2021/03/20 11:31:19;;;;;;;27.43;14.97;;;1.00;99.90;;;;;;5030975;28;20664;-87
2021/03/20 11:33:45;;;;;;;27.57;14.53;;;-0.60;99.90;;;;;;5031678;28;20557;-89
2021/03/20 11:36:22;;;;;;;25.07;14.07;;;1.00;99.90;;;;;;5027396;28;20328;-87
2021/03/20 11:38:49;;;;;;;16.80;8.80;;;-0.70;99.90;;;;;;5024502;28;20656;-88
2021/03/20 11:41:22;;;;;;;27.53;15.07;;;-0.80;99.90;;;;;;5028104;28;20192;-87
2021/03/20 11:43:55;;;;;;;26.03;14.33;;;-0.80;99.90;;;;;;5029203;28;20651;-87
2021/03/20 11:46:37;;;;;;;34.03;14.27;;;-0.90;99.90;;;;;;5032278;28;20191;-88
2021/03/20 11:49:07;;;;;;;30.17;14.23;;;-1.10;99.90;;;;;;5031497;28;20699;-87
2021/03/20 11:51:45;;;;;;;36.03;18.23;;;-1.00;99.90;;;;;;5030480;28;20190;-89
2021/03/20 11:54:36;;;;;;;27.30;14.87;;;-0.30;99.90;;;;;;5026311;28;20181;-87
2021/03/20 11:57:11;;;;;;;37.47;17.17;;;-1.20;99.90;;;;;;5027556;28;20208;-85
2021/03/20 11:59:46;;;;;;;31.23;14.97;;;1.10;99.90;;;;;;5026845;28;20535;-87
2021/03/20 12:02:37;;;;;;;35.23;19.70;;;-1.00;99.90;;;;;;5024198;28;20238;-86
2021/03/20 12:05:12;;;;;;;38.93;18.40;;;-1.20;99.90;;;;;;5021952;28;20228;-87
2021/03/20 12:07:37;;;;;;;37.97;17.00;;;-1.30;99.90;;;;;;5028619;28;20260;-87
2021/03/20 12:10:15;;;;;;;36.70;18.30;;;0.50;99.90;;;;;;5027093;28;20188;-86
2021/03/20 12:12:44;;;;;;;33.73;17.03;;;-1.20;99.90;;;;;;5024320;28;20697;-86
2021/03/20 12:15:35;;;;;;;34.23;18.17;;;-1.30;99.90;;;;;;5027930;28;20181;-85
2021/03/20 12:18:10;;;;;;;40.87;19.40;;;-1.30;99.90;;;;;;5030530;28;20174;-85
2021/03/20 12:20:42;;;;;;;41.40;21.33;;;-1.30;99.90;;;;;;5019425;28;20184;-85
2021/03/20 12:23:25;;;;;;;37.03;19.83;;;-1.20;99.90;;;;;;5030627;28;20181;-85
2021/03/20 12:25:54;;;;;;;51.33;21.23;;;-1.20;99.90;;;;;;5030376;28;20176;-85
2021/03/20 12:28:27;;;;;;;40.03;21.40;;;-0.20;99.90;;;;;;5027338;28;20171;-85
2021/03/20 12:31:11;;;;;;;43.47;21.27;;;-1.20;99.90;;;;;;5031154;28;20204;-86
2021/03/20 12:34:07;;;;;;;41.53;20.77;;;-1.20;99.90;;;;;;5021877;28;20179;-86
2021/03/20 12:36:43;;;;;;;39.83;20.20;;;-1.20;99.90;;;;;;5027619;28;20678;-85
2021/03/20 12:39:11;;;;;;;37.10;19.43;;;-1.30;99.90;;;;;;5029272;28;20210;-85
2021/03/20 12:41:40;;;;;;;45.10;21.63;;;-1.00;99.90;;;;;;5027726;28;20191;-85
2021/03/20 12:44:09;;;;;;;40.00;21.73;;;-1.00;99.90;;;;;;5021034;28;20176;-84
2021/03/20 12:46:38;;;;;;;37.07;17.67;;;-1.30;99.90;;;;;;5022908;28;20215;-85
2021/03/20 12:49:03;;;;;;;34.33;17.43;;;-1.30;99.90;;;;;;5024472;28;20176;-86
2021/03/20 12:51:30;;;;;;;37.97;19.57;;;0.30;99.90;;;;;;5025720;28;20188;-85
2021/03/20 12:53:55;;;;;;;40.47;19.47;;;-1.20;99.90;;;;;;5024367;28;20251;-85
2021/03/20 12:56:21;;;;;;;59.73;31.97;;;-0.40;99.90;;;;;;5022379;28;20675;-86
2021/03/20 12:58:47;;;;;;;47.07;23.33;;;0.30;99.90;;;;;;5024692;28;20183;-86
2021/03/20 13:01:13;;;;;;;39.97;18.73;;;-0.90;99.90;;;;;;5027941;28;20276;-85
2021/03/20 13:03:39;;;;;;;42.93;21.13;;;-1.40;99.90;;;;;;5027348;28;20586;-86
2021/03/20 13:06:05;;;;;;;41.13;19.40;;;-1.30;99.90;;;;;;5030896;28;20185;-85
2021/03/20 13:08:32;;;;;;;59.47;30.70;;;-1.40;99.90;;;;;;5010777;28;20261;-88
2021/03/20 13:10:58;;;;;;;45.67;23.93;;;-0.40;99.90;;;;;;5028093;28;20208;-85
2021/03/20 13:13:24;;;;;;;58.10;26.10;;;-1.10;99.90;;;;;;5030178;28;20272;-86